Three Lakes, Wisconsin
Current Conditions -  °F | °C
As of 2:35 PM on Thursday 20 Nov 2014 (Local Time) from KEGV Reporting Station
Overcast Overcast  
Wind Chill: -7°   Ceiling: 3100
Heat Index: 10°   Visibility: 10mi
Dew Point: -2°   Wind: 16mph
Humidity: 58%   Direction: 270°W
Pressure: 29.92"   Gusts: 22mph
Location:  45.8°N, 89.16°W
Report Text: KEGV 202035Z AUTO 27014G19KT 10SM BKN031 OVC037 M12/M19 A2992 RMK AO2 T11211189
Loading
Personal Weather Stations






























Interactive Weather Map New forecast layout! Learn more

10-Day Weather Forecast

Advertisements
Track Severe Weather on mobile